sensor_id;sensor_type;location;lat;lon;timestamp;temperature;humidity
16827;DHT22;8530;49.540;8.576;2023-06-14T00:00:45;19.80;31.20
16827;DHT22;8530;49.540;8.576;2023-06-14T00:03:14;19.80;31.20
16827;DHT22;8530;49.540;8.576;2023-06-14T00:05:44;19.80;31.10
16827;DHT22;8530;49.540;8.576;2023-06-14T00:08:12;19.90;31.10
16827;DHT22;8530;49.540;8.576;2023-06-14T00:10:38;19.90;31.10
16827;DHT22;8530;49.540;8.576;2023-06-14T00:13:07;19.90;31.10
16827;DHT22;8530;49.540;8.576;2023-06-14T00:15:34;19.90;31.10
16827;DHT22;8530;49.540;8.576;2023-06-14T00:18:01;19.90;31.10
16827;DHT22;8530;49.540;8.576;2023-06-14T00:20:29;19.80;31.10
16827;DHT22;8530;49.540;8.576;2023-06-14T00:22:57;19.80;31.20
16827;DHT22;8530;49.540;8.576;2023-06-14T00:25:24;19.70;31.10
16827;DHT22;8530;49.540;8.576;2023-06-14T00:27:51;19.70;31.10
16827;DHT22;8530;49.540;8.576;2023-06-14T00:30:18;19.70;31.10
16827;DHT22;8530;49.540;8.576;2023-06-14T00:32:45;19.70;31.20
16827;DHT22;8530;49.540;8.576;2023-06-14T00:35:13;19.70;31.30
16827;DHT22;8530;49.540;8.576;2023-06-14T00:37:40;19.70;31.40
16827;DHT22;8530;49.540;8.576;2023-06-14T00:40:09;19.70;31.30
16827;DHT22;8530;49.540;8.576;2023-06-14T00:42:35;19.80;31.40
16827;DHT22;8530;49.540;8.576;2023-06-14T00:45:03;19.80;31.30
16827;DHT22;8530;49.540;8.576;2023-06-14T00:47:30;19.80;31.30
16827;DHT22;8530;49.540;8.576;2023-06-14T00:49:57;19.80;31.30
16827;DHT22;8530;49.540;8.576;2023-06-14T00:52:25;19.80;31.30
16827;DHT22;8530;49.540;8.576;2023-06-14T00:54:52;19.80;31.30
16827;DHT22;8530;49.540;8.576;2023-06-14T00:57:20;19.80;31.20
16827;DHT22;8530;49.540;8.576;2023-06-14T00:59:48;19.80;31.30
16827;DHT22;8530;49.540;8.576;2023-06-14T01:02:16;19.80;31.30
16827;DHT22;8530;49.540;8.576;2023-06-14T01:04:45;19.70;31.20
16827;DHT22;8530;49.540;8.576;2023-06-14T01:07:21;19.70;31.30
16827;DHT22;8530;49.540;8.576;2023-06-14T01:10:02;19.70;31.30
16827;DHT22;8530;49.540;8.576;2023-06-14T01:12:39;19.70;31.40
16827;DHT22;8530;49.540;8.576;2023-06-14T01:15:07;19.70;31.50
16827;DHT22;8530;49.540;8.576;2023-06-14T01:17:35;19.60;31.40
16827;DHT22;8530;49.540;8.576;2023-06-14T01:20:07;19.60;31.50
16827;DHT22;8530;49.540;8.576;2023-06-14T01:22:44;19.60;31.50
16827;DHT22;8530;49.540;8.576;2023-06-14T01:25:11;19.60;31.60
16827;DHT22;8530;49.540;8.576;2023-06-14T01:27:39;19.60;31.60
16827;DHT22;8530;49.540;8.576;2023-06-14T01:30:07;19.60;31.60
16827;DHT22;8530;49.540;8.576;2023-06-14T01:32:35;19.50;31.60
16827;DHT22;8530;49.540;8.576;2023-06-14T01:35:03;19.50;31.60
16827;DHT22;8530;49.540;8.576;2023-06-14T01:37:30;19.50;31.70
16827;DHT22;8530;49.540;8.576;2023-06-14T01:39:59;19.50;31.80
16827;DHT22;8530;49.540;8.576;2023-06-14T01:42:26;19.50;31.80
16827;DHT22;8530;49.540;8.576;2023-06-14T01:44:54;19.50;31.80
16827;DHT22;8530;49.540;8.576;2023-06-14T01:47:21;19.50;31.80
16827;DHT22;8530;49.540;8.576;2023-06-14T01:49:48;19.60;31.80
16827;DHT22;8530;49.540;8.576;2023-06-14T01:52:15;19.60;31.80
16827;DHT22;8530;49.540;8.576;2023-06-14T01:54:42;19.70;32.30
16827;DHT22;8530;49.540;8.576;2023-06-14T01:57:10;19.70;31.60
16827;DHT22;8530;49.540;8.576;2023-06-14T01:59:36;19.70;31.50
16827;DHT22;8530;49.540;8.576;2023-06-14T02:02:03;19.70;31.40
16827;DHT22;8530;49.540;8.576;2023-06-14T02:04:30;19.80;31.40
16827;DHT22;8530;49.540;8.576;2023-06-14T02:06:57;19.80;31.40
16827;DHT22;8530;49.540;8.576;2023-06-14T02:09:24;19.80;31.30
16827;DHT22;8530;49.540;8.576;2023-06-14T02:11:51;19.80;31.20
16827;DHT22;8530;49.540;8.576;2023-06-14T02:14:19;19.80;31.20
16827;DHT22;8530;49.540;8.576;2023-06-14T02:16:46;19.80;31.20
16827;DHT22;8530;49.540;8.576;2023-06-14T02:19:14;19.70;31.10
16827;DHT22;8530;49.540;8.576;2023-06-14T02:21:41;19.70;31.10
16827;DHT22;8530;49.540;8.576;2023-06-14T02:24:08;19.60;31.20
16827;DHT22;8530;49.540;8.576;2023-06-14T02:26:35;19.60;31.20
16827;DHT22;8530;49.540;8.576;2023-06-14T02:29:03;19.50;31.20
16827;DHT22;8530;49.540;8.576;2023-06-14T02:31:33;19.50;31.30
16827;DHT22;8530;49.540;8.576;2023-06-14T02:34:00;19.40;31.30
16827;DHT22;8530;49.540;8.576;2023-06-14T02:36:26;19.40;31.40
16827;DHT22;8530;49.540;8.576;2023-06-14T02:38:55;19.40;31.40
16827;DHT22;8530;49.540;8.576;2023-06-14T02:41:22;19.40;31.50
16827;DHT22;8530;49.540;8.576;2023-06-14T02:43:49;19.30;31.50
16827;DHT22;8530;49.540;8.576;2023-06-14T02:46:16;19.30;31.60
16827;DHT22;8530;49.540;8.576;2023-06-14T02:48:44;19.20;31.60
16827;DHT22;8530;49.540;8.576;2023-06-14T02:51:11;19.20;31.70
16827;DHT22;8530;49.540;8.576;2023-06-14T02:53:38;19.10;31.70
16827;DHT22;8530;49.540;8.576;2023-06-14T02:56:05;19.10;31.80
16827;DHT22;8530;49.540;8.576;2023-06-14T02:58:32;19.00;32.00
16827;DHT22;8530;49.540;8.576;2023-06-14T03:00:59;18.90;32.10
16827;DHT22;8530;49.540;8.576;2023-06-14T03:03:29;18.80;32.10
16827;DHT22;8530;49.540;8.576;2023-06-14T03:05:58;18.70;32.20
16827;DHT22;8530;49.540;8.576;2023-06-14T03:08:29;18.70;32.40
16827;DHT22;8530;49.540;8.576;2023-06-14T03:10:57;18.60;32.40
16827;DHT22;8530;49.540;8.576;2023-06-14T03:13:24;18.60;32.60
16827;DHT22;8530;49.540;8.576;2023-06-14T03:15:51;18.60;32.70
16827;DHT22;8530;49.540;8.576;2023-06-14T03:18:18;18.60;32.80
16827;DHT22;8530;49.540;8.576;2023-06-14T03:20:47;18.60;32.90
16827;DHT22;8530;49.540;8.576;2023-06-14T03:23:18;18.60;32.90
16827;DHT22;8530;49.540;8.576;2023-06-14T03:25:44;18.60;33.10
16827;DHT22;8530;49.540;8.576;2023-06-14T03:28:11;18.50;33.20
16827;DHT22;8530;49.540;8.576;2023-06-14T03:30:38;18.30;33.20
16827;DHT22;8530;49.540;8.576;2023-06-14T03:33:05;18.10;33.30
16827;DHT22;8530;49.540;8.576;2023-06-14T03:35:31;17.90;33.40
16827;DHT22;8530;49.540;8.576;2023-06-14T03:37:58;17.70;33.60
16827;DHT22;8530;49.540;8.576;2023-06-14T03:40:26;17.50;33.90
16827;DHT22;8530;49.540;8.576;2023-06-14T03:42:53;17.40;34.20
16827;DHT22;8530;49.540;8.576;2023-06-14T03:45:20;17.20;34.30
16827;DHT22;8530;49.540;8.576;2023-06-14T03:47:47;17.10;34.60
16827;DHT22;8530;49.540;8.576;2023-06-14T03:50:14;16.90;34.80
16827;DHT22;8530;49.540;8.576;2023-06-14T03:52:40;16.80;35.00
16827;DHT22;8530;49.540;8.576;2023-06-14T03:55:09;16.70;35.30
16827;DHT22;8530;49.540;8.576;2023-06-14T03:57:39;16.70;35.70
16827;DHT22;8530;49.540;8.576;2023-06-14T04:00:08;16.80;36.10
16827;DHT22;8530;49.540;8.576;2023-06-14T04:02:36;17.50;36.40
16827;DHT22;8530;49.540;8.576;2023-06-14T04:05:03;18.50;36.10
16827;DHT22;8530;49.540;8.576;2023-06-14T04:07:30;19.50;35.70
16827;DHT22;8530;49.540;8.576;2023-06-14T04:09:57;20.40;35.10
16827;DHT22;8530;49.540;8.576;2023-06-14T04:12:24;21.00;34.20
16827;DHT22;8530;49.540;8.576;2023-06-14T04:14:52;20.90;33.50
16827;DHT22;8530;49.540;8.576;2023-06-14T04:17:19;20.40;33.70
16827;DHT22;8530;49.540;8.576;2023-06-14T04:19:46;19.90;34.10
16827;DHT22;8530;49.540;8.576;2023-06-14T04:22:13;19.40;34.30
16827;DHT22;8530;49.540;8.576;2023-06-14T04:24:40;19.00;34.60
16827;DHT22;8530;49.540;8.576;2023-06-14T04:27:08;18.70;34.80
16827;DHT22;8530;49.540;8.576;2023-06-14T04:29:34;18.50;35.00
16827;DHT22;8530;49.540;8.576;2023-06-14T04:32:03;18.40;35.30
16827;DHT22;8530;49.540;8.576;2023-06-14T04:34:31;18.30;35.50
16827;DHT22;8530;49.540;8.576;2023-06-14T04:36:59;18.30;36.30
16827;DHT22;8530;49.540;8.576;2023-06-14T04:39:27;18.30;36.00
16827;DHT22;8530;49.540;8.576;2023-06-14T04:41:54;18.30;36.10
16827;DHT22;8530;49.540;8.576;2023-06-14T04:44:23;18.30;36.30
16827;DHT22;8530;49.540;8.576;2023-06-14T04:46:55;18.30;36.50
16827;DHT22;8530;49.540;8.576;2023-06-14T04:49:23;18.40;36.70
16827;DHT22;8530;49.540;8.576;2023-06-14T04:51:51;18.50;36.70
16827;DHT22;8530;49.540;8.576;2023-06-14T04:54:23;18.70;36.90
16827;DHT22;8530;49.540;8.576;2023-06-14T04:56:50;18.90;36.90
16827;DHT22;8530;49.540;8.576;2023-06-14T04:59:17;19.10;36.90
16827;DHT22;8530;49.540;8.576;2023-06-14T05:01:44;19.20;36.80
16827;DHT22;8530;49.540;8.576;2023-06-14T05:04:13;19.40;36.80
16827;DHT22;8530;49.540;8.576;2023-06-14T05:06:41;19.50;36.70
16827;DHT22;8530;49.540;8.576;2023-06-14T05:09:10;19.60;36.60
16827;DHT22;8530;49.540;8.576;2023-06-14T05:11:36;19.80;36.60
16827;DHT22;8530;49.540;8.576;2023-06-14T05:14:03;19.90;36.50
16827;DHT22;8530;49.540;8.576;2023-06-14T05:16:31;20.00;36.30
16827;DHT22;8530;49.540;8.576;2023-06-14T05:18:58;20.10;36.30
16827;DHT22;8530;49.540;8.576;2023-06-14T05:21:25;20.30;36.20
16827;DHT22;8530;49.540;8.576;2023-06-14T05:23:53;20.40;36.10
16827;DHT22;8530;49.540;8.576;2023-06-14T05:26:19;20.60;36.00
16827;DHT22;8530;49.540;8.576;2023-06-14T05:28:48;20.70;35.80
16827;DHT22;8530;49.540;8.576;2023-06-14T05:31:18;21.00;35.90
16827;DHT22;8530;49.540;8.576;2023-06-14T05:33:44;21.10;35.80
16827;DHT22;8530;49.540;8.576;2023-06-14T05:36:11;21.40;35.90
16827;DHT22;8530;49.540;8.576;2023-06-14T05:38:38;21.80;36.20
16827;DHT22;8530;49.540;8.576;2023-06-14T05:41:06;23.20;36.70
16827;DHT22;8530;49.540;8.576;2023-06-14T05:43:33;25.80;35.60
16827;DHT22;8530;49.540;8.576;2023-06-14T05:45:59;28.50;32.90
16827;DHT22;8530;49.540;8.576;2023-06-14T05:48:26;30.90;30.20
16827;DHT22;8530;49.540;8.576;2023-06-14T05:50:53;33.10;28.10
16827;DHT22;8530;49.540;8.576;2023-06-14T05:53:20;34.90;26.00
16827;DHT22;8530;49.540;8.576;2023-06-14T05:55:46;35.90;24.10
16827;DHT22;8530;49.540;8.576;2023-06-14T05:58:14;36.80;22.50
16827;DHT22;8530;49.540;8.576;2023-06-14T06:00:41;37.70;21.30
16827;DHT22;8530;49.540;8.576;2023-06-14T06:03:08;38.20;20.10
16827;DHT22;8530;49.540;8.576;2023-06-14T06:05:36;38.80;19.20
16827;DHT22;8530;49.540;8.576;2023-06-14T06:08:03;39.50;18.50
16827;DHT22;8530;49.540;8.576;2023-06-14T06:10:30;39.90;17.50
16827;DHT22;8530;49.540;8.576;2023-06-14T06:12:57;40.50;17.00
16827;DHT22;8530;49.540;8.576;2023-06-14T06:15:25;41.20;16.20
16827;DHT22;8530;49.540;8.576;2023-06-14T06:17:52;41.40;15.50
16827;DHT22;8530;49.540;8.576;2023-06-14T06:20:19;41.90;15.30
16827;DHT22;8530;49.540;8.576;2023-06-14T06:22:46;42.10;14.50
16827;DHT22;8530;49.540;8.576;2023-06-14T06:25:13;42.00;14.30
16827;DHT22;8530;49.540;8.576;2023-06-14T06:27:40;41.90;14.00
16827;DHT22;8530;49.540;8.576;2023-06-14T06:30:07;42.00;13.90
16827;DHT22;8530;49.540;8.576;2023-06-14T06:32:35;42.40;13.60
16827;DHT22;8530;49.540;8.576;2023-06-14T06:35:02;42.60;13.30
16827;DHT22;8530;49.540;8.576;2023-06-14T06:37:31;42.90;13.00
16827;DHT22;8530;49.540;8.576;2023-06-14T06:39:58;42.90;12.80
16827;DHT22;8530;49.540;8.576;2023-06-14T06:42:25;42.80;12.70
16827;DHT22;8530;49.540;8.576;2023-06-14T06:44:52;42.80;12.50
16827;DHT22;8530;49.540;8.576;2023-06-14T06:47:18;42.60;12.40
16827;DHT22;8530;49.540;8.576;2023-06-14T06:49:46;42.70;12.30
16827;DHT22;8530;49.540;8.576;2023-06-14T06:52:14;42.80;12.20
16827;DHT22;8530;49.540;8.576;2023-06-14T06:54:40;43.20;12.10
16827;DHT22;8530;49.540;8.576;2023-06-14T06:57:07;43.30;12.00
16827;DHT22;8530;49.540;8.576;2023-06-14T06:59:34;43.30;11.80
16827;DHT22;8530;49.540;8.576;2023-06-14T07:02:01;43.30;11.90
16827;DHT22;8530;49.540;8.576;2023-06-14T07:04:27;42.90;11.80
16827;DHT22;8530;49.540;8.576;2023-06-14T07:06:55;42.60;11.90
16827;DHT22;8530;49.540;8.576;2023-06-14T07:09:22;42.40;11.90
16827;DHT22;8530;49.540;8.576;2023-06-14T07:11:50;42.70;12.00
16827;DHT22;8530;49.540;8.576;2023-06-14T07:14:17;43.40;11.90
16827;DHT22;8530;49.540;8.576;2023-06-14T07:16:44;44.10;11.80
16827;DHT22;8530;49.540;8.576;2023-06-14T07:19:12;44.00;11.50
16827;DHT22;8530;49.540;8.576;2023-06-14T07:21:38;44.10;11.40
16827;DHT22;8530;49.540;8.576;2023-06-14T07:24:07;43.80;11.20
16827;DHT22;8530;49.540;8.576;2023-06-14T07:26:34;43.90;11.10
16827;DHT22;8530;49.540;8.576;2023-06-14T07:29:02;43.70;10.80
16827;DHT22;8530;49.540;8.576;2023-06-14T07:31:28;43.20;10.90
16827;DHT22;8530;49.540;8.576;2023-06-14T07:33:56;43.20;11.10
16827;DHT22;8530;49.540;8.576;2023-06-14T07:36:23;43.30;11.10
16827;DHT22;8530;49.540;8.576;2023-06-14T07:38:50;43.10;11.10
16827;DHT22;8530;49.540;8.576;2023-06-14T07:41:18;43.50;11.00
16827;DHT22;8530;49.540;8.576;2023-06-14T07:43:44;43.60;11.00
16827;DHT22;8530;49.540;8.576;2023-06-14T07:46:11;43.30;10.90
16827;DHT22;8530;49.540;8.576;2023-06-14T07:48:38;43.30;10.90
16827;DHT22;8530;49.540;8.576;2023-06-14T07:51:05;43.60;10.80
16827;DHT22;8530;49.540;8.576;2023-06-14T07:53:31;43.90;10.70
16827;DHT22;8530;49.540;8.576;2023-06-14T07:55:59;43.90;10.70
16827;DHT22;8530;49.540;8.576;2023-06-14T07:58:27;43.70;10.60
16827;DHT22;8530;49.540;8.576;2023-06-14T08:00:54;43.60;10.40
16827;DHT22;8530;49.540;8.576;2023-06-14T08:03:20;43.30;10.10
16827;DHT22;8530;49.540;8.576;2023-06-14T08:05:48;43.00;10.10
16827;DHT22;8530;49.540;8.576;2023-06-14T08:08:15;42.60;10.10
16827;DHT22;8530;49.540;8.576;2023-06-14T08:10:42;42.00;10.10
16827;DHT22;8530;49.540;8.576;2023-06-14T08:13:09;41.30;10.20
16827;DHT22;8530;49.540;8.576;2023-06-14T08:15:37;40.20;10.40
16827;DHT22;8530;49.540;8.576;2023-06-14T08:18:04;39.10;10.80
16827;DHT22;8530;49.540;8.576;2023-06-14T08:20:30;37.60;11.10
16827;DHT22;8530;49.540;8.576;2023-06-14T08:22:57;35.60;11.70
16827;DHT22;8530;49.540;8.576;2023-06-14T08:25:24;34.10;12.50
16827;DHT22;8530;49.540;8.576;2023-06-14T08:27:51;32.90;13.10
16827;DHT22;8530;49.540;8.576;2023-06-14T08:30:18;31.80;13.90
16827;DHT22;8530;49.540;8.576;2023-06-14T08:32:46;30.80;14.80
16827;DHT22;8530;49.540;8.576;2023-06-14T08:35:13;29.70;16.00
16827;DHT22;8530;49.540;8.576;2023-06-14T08:37:39;28.80;16.60
16827;DHT22;8530;49.540;8.576;2023-06-14T08:40:17;28.30;17.40
16827;DHT22;8530;49.540;8.576;2023-06-14T08:42:47;27.90;18.20
16827;DHT22;8530;49.540;8.576;2023-06-14T08:45:14;27.50;18.60
16827;DHT22;8530;49.540;8.576;2023-06-14T08:47:40;27.20;19.20
16827;DHT22;8530;49.540;8.576;2023-06-14T08:50:09;27.10;19.60
16827;DHT22;8530;49.540;8.576;2023-06-14T08:52:38;27.00;20.30
16827;DHT22;8530;49.540;8.576;2023-06-14T08:55:06;26.80;20.60
16827;DHT22;8530;49.540;8.576;2023-06-14T08:57:35;26.90;20.80
16827;DHT22;8530;49.540;8.576;2023-06-14T09:00:04;26.80;21.00
16827;DHT22;8530;49.540;8.576;2023-06-14T09:02:37;26.70;21.10
16827;DHT22;8530;49.540;8.576;2023-06-14T09:05:04;26.70;21.30
16827;DHT22;8530;49.540;8.576;2023-06-14T09:07:32;26.60;21.40
16827;DHT22;8530;49.540;8.576;2023-06-14T09:10:07;26.50;21.60
16827;DHT22;8530;49.540;8.576;2023-06-14T09:12:35;26.50;21.90
16827;DHT22;8530;49.540;8.576;2023-06-14T09:15:01;26.60;22.00
16827;DHT22;8530;49.540;8.576;2023-06-14T09:17:32;26.50;21.80
16827;DHT22;8530;49.540;8.576;2023-06-14T09:19:59;26.60;22.00
16827;DHT22;8530;49.540;8.576;2023-06-14T09:22:26;26.60;22.00
16827;DHT22;8530;49.540;8.576;2023-06-14T09:24:57;26.50;22.20
16827;DHT22;8530;49.540;8.576;2023-06-14T09:27:25;26.40;22.30
16827;DHT22;8530;49.540;8.576;2023-06-14T09:29:52;26.30;22.30
16827;DHT22;8530;49.540;8.576;2023-06-14T09:32:19;26.40;22.50
16827;DHT22;8530;49.540;8.576;2023-06-14T09:34:46;26.30;22.60
16827;DHT22;8530;49.540;8.576;2023-06-14T09:37:12;26.30;22.70
16827;DHT22;8530;49.540;8.576;2023-06-14T09:39:49;26.50;22.80
16827;DHT22;8530;49.540;8.576;2023-06-14T09:42:18;26.60;22.80
16827;DHT22;8530;49.540;8.576;2023-06-14T09:44:47;26.70;22.60
16827;DHT22;8530;49.540;8.576;2023-06-14T09:47:15;26.70;22.50
16827;DHT22;8530;49.540;8.576;2023-06-14T09:49:42;26.80;22.50
16827;DHT22;8530;49.540;8.576;2023-06-14T09:52:10;26.80;22.70
16827;DHT22;8530;49.540;8.576;2023-06-14T09:54:41;26.70;22.80
16827;DHT22;8530;49.540;8.576;2023-06-14T09:57:09;26.70;22.70
16827;DHT22;8530;49.540;8.576;2023-06-14T09:59:41;26.90;22.80
16827;DHT22;8530;49.540;8.576;2023-06-14T10:02:11;26.90;22.70
16827;DHT22;8530;49.540;8.576;2023-06-14T10:04:42;26.80;22.50
16827;DHT22;8530;49.540;8.576;2023-06-14T10:07:13;26.80;22.40
16827;DHT22;8530;49.540;8.576;2023-06-14T10:09:44;27.00;22.40
16827;DHT22;8530;49.540;8.576;2023-06-14T10:12:16;27.00;22.40
16827;DHT22;8530;49.540;8.576;2023-06-14T10:14:48;27.00;22.30
16827;DHT22;8530;49.540;8.576;2023-06-14T10:17:22;27.10;22.30
16827;DHT22;8530;49.540;8.576;2023-06-14T10:19:55;27.20;22.30
16827;DHT22;8530;49.540;8.576;2023-06-14T10:22:29;27.30;22.30
16827;DHT22;8530;49.540;8.576;2023-06-14T10:24:57;27.30;22.20
16827;DHT22;8530;49.540;8.576;2023-06-14T10:27:24;27.30;22.20
16827;DHT22;8530;49.540;8.576;2023-06-14T10:30:04;27.30;22.20
16827;DHT22;8530;49.540;8.576;2023-06-14T10:32:32;27.40;22.10
16827;DHT22;8530;49.540;8.576;2023-06-14T10:35:01;27.40;22.10
16827;DHT22;8530;49.540;8.576;2023-06-14T10:37:28;27.60;22.20
16827;DHT22;8530;49.540;8.576;2023-06-14T10:39:54;27.60;22.60
16827;DHT22;8530;49.540;8.576;2023-06-14T10:42:21;27.60;22.10
16827;DHT22;8530;49.540;8.576;2023-06-14T10:44:51;27.60;22.10
16827;DHT22;8530;49.540;8.576;2023-06-14T10:47:27;27.50;22.60
16827;DHT22;8530;49.540;8.576;2023-06-14T10:50:02;27.60;22.20
16827;DHT22;8530;49.540;8.576;2023-06-14T10:52:32;27.60;22.20
16827;DHT22;8530;49.540;8.576;2023-06-14T10:55:05;27.70;22.10
16827;DHT22;8530;49.540;8.576;2023-06-14T10:57:35;27.80;22.00
16827;DHT22;8530;49.540;8.576;2023-06-14T11:00:02;28.00;21.90
16827;DHT22;8530;49.540;8.576;2023-06-14T11:02:56;28.40;21.70
16827;DHT22;8530;49.540;8.576;2023-06-14T11:05:48;28.90;21.40
16827;DHT22;8530;49.540;8.576;2023-06-14T11:08:27;29.30;21.20
16827;DHT22;8530;49.540;8.576;2023-06-14T11:10:54;29.60;20.90
16827;DHT22;8530;49.540;8.576;2023-06-14T11:13:24;29.90;20.80
16827;DHT22;8530;49.540;8.576;2023-06-14T11:15:52;30.00;20.70
16827;DHT22;8530;49.540;8.576;2023-06-14T11:18:22;30.00;20.50
16827;DHT22;8530;49.540;8.576;2023-06-14T11:20:49;30.10;20.40
16827;DHT22;8530;49.540;8.576;2023-06-14T11:23:16;29.80;20.30
16827;DHT22;8530;49.540;8.576;2023-06-14T11:25:43;29.70;20.30
16827;DHT22;8530;49.540;8.576;2023-06-14T11:28:10;29.70;20.20
16827;DHT22;8530;49.540;8.576;2023-06-14T11:30:36;29.70;20.10
16827;DHT22;8530;49.540;8.576;2023-06-14T11:33:03;29.80;20.10
16827;DHT22;8530;49.540;8.576;2023-06-14T11:35:31;29.80;20.00
16827;DHT22;8530;49.540;8.576;2023-06-14T11:38:01;29.70;20.40
16827;DHT22;8530;49.540;8.576;2023-06-14T11:40:28;29.50;20.00
16827;DHT22;8530;49.540;8.576;2023-06-14T11:42:59;29.50;20.10
16827;DHT22;8530;49.540;8.576;2023-06-14T11:45:26;29.50;20.20
16827;DHT22;8530;49.540;8.576;2023-06-14T11:47:55;29.60;20.20
16827;DHT22;8530;49.540;8.576;2023-06-14T11:50:22;29.70;20.20
16827;DHT22;8530;49.540;8.576;2023-06-14T11:52:53;29.90;20.10
16827;DHT22;8530;49.540;8.576;2023-06-14T11:55:21;30.00;19.90
16827;DHT22;8530;49.540;8.576;2023-06-14T11:57:48;30.10;19.90
16827;DHT22;8530;49.540;8.576;2023-06-14T12:00:15;30.10;19.90
16827;DHT22;8530;49.540;8.576;2023-06-14T12:02:43;29.80;19.80
16827;DHT22;8530;49.540;8.576;2023-06-14T12:05:20;29.10;20.00
16827;DHT22;8530;49.540;8.576;2023-06-14T12:07:47;28.90;20.30
16827;DHT22;8530;49.540;8.576;2023-06-14T12:10:17;28.70;20.40
16827;DHT22;8530;49.540;8.576;2023-06-14T12:12:44;28.80;20.40
16827;DHT22;8530;49.540;8.576;2023-06-14T12:15:11;29.00;20.40
16827;DHT22;8530;49.540;8.576;2023-06-14T12:17:39;29.10;20.40
16827;DHT22;8530;49.540;8.576;2023-06-14T12:20:09;29.10;20.30
16827;DHT22;8530;49.540;8.576;2023-06-14T12:22:50;29.20;20.40
16827;DHT22;8530;49.540;8.576;2023-06-14T12:25:27;29.40;20.30
16827;DHT22;8530;49.540;8.576;2023-06-14T12:27:54;29.70;20.20
16827;DHT22;8530;49.540;8.576;2023-06-14T12:30:21;29.80;20.00
16827;DHT22;8530;49.540;8.576;2023-06-14T12:32:47;30.10;19.90
16827;DHT22;8530;49.540;8.576;2023-06-14T12:35:16;30.50;19.70
16827;DHT22;8530;49.540;8.576;2023-06-14T12:37:43;30.80;19.50
16827;DHT22;8530;49.540;8.576;2023-06-14T12:40:11;30.90;19.30
16827;DHT22;8530;49.540;8.576;2023-06-14T12:42:40;30.70;19.10
16827;DHT22;8530;49.540;8.576;2023-06-14T12:45:08;30.20;19.00
16827;DHT22;8530;49.540;8.576;2023-06-14T12:47:34;29.60;19.10
16827;DHT22;8530;49.540;8.576;2023-06-14T12:50:01;29.30;19.30
16827;DHT22;8530;49.540;8.576;2023-06-14T12:52:28;29.10;19.50
16827;DHT22;8530;49.540;8.576;2023-06-14T12:54:55;28.90;19.70
16827;DHT22;8530;49.540;8.576;2023-06-14T12:57:23;28.80;19.90
16827;DHT22;8530;49.540;8.576;2023-06-14T12:59:51;28.90;19.90
16827;DHT22;8530;49.540;8.576;2023-06-14T13:02:19;29.20;20.00
16827;DHT22;8530;49.540;8.576;2023-06-14T13:04:47;29.20;20.10
16827;DHT22;8530;49.540;8.576;2023-06-14T13:07:14;29.20;20.10
16827;DHT22;8530;49.540;8.576;2023-06-14T13:09:41;28.90;20.20
16827;DHT22;8530;49.540;8.576;2023-06-14T13:12:09;28.60;20.30
16827;DHT22;8530;49.540;8.576;2023-06-14T13:14:37;28.40;20.50
16827;DHT22;8530;49.540;8.576;2023-06-14T13:17:06;28.30;20.70
16827;DHT22;8530;49.540;8.576;2023-06-14T13:19:33;28.30;20.80
16827;DHT22;8530;49.540;8.576;2023-06-14T13:21:59;28.20;20.80
16827;DHT22;8530;49.540;8.576;2023-06-14T13:24:26;28.20;20.90
16827;DHT22;8530;49.540;8.576;2023-06-14T13:26:53;28.30;20.90
16827;DHT22;8530;49.540;8.576;2023-06-14T13:29:20;28.50;20.90
16827;DHT22;8530;49.540;8.576;2023-06-14T13:31:47;28.70;20.90
16827;DHT22;8530;49.540;8.576;2023-06-14T13:34:15;28.70;20.80
16827;DHT22;8530;49.540;8.576;2023-06-14T13:36:42;28.80;20.80
16827;DHT22;8530;49.540;8.576;2023-06-14T13:39:09;29.00;20.80
16827;DHT22;8530;49.540;8.576;2023-06-14T13:41:36;29.10;20.70
16827;DHT22;8530;49.540;8.576;2023-06-14T13:44:03;29.20;20.70
16827;DHT22;8530;49.540;8.576;2023-06-14T13:46:30;29.40;20.70
16827;DHT22;8530;49.540;8.576;2023-06-14T13:48:57;29.70;20.50
16827;DHT22;8530;49.540;8.576;2023-06-14T13:51:26;29.90;20.40
16827;DHT22;8530;49.540;8.576;2023-06-14T13:53:54;30.10;20.20
16827;DHT22;8530;49.540;8.576;2023-06-14T13:56:21;30.20;20.10
16827;DHT22;8530;49.540;8.576;2023-06-14T13:58:50;30.40;20.00
16827;DHT22;8530;49.540;8.576;2023-06-14T14:01:17;30.30;19.90
16827;DHT22;8530;49.540;8.576;2023-06-14T14:03:45;30.20;20.00
16827;DHT22;8530;49.540;8.576;2023-06-14T14:06:12;30.00;20.00
16827;DHT22;8530;49.540;8.576;2023-06-14T14:08:40;29.80;20.10
16827;DHT22;8530;49.540;8.576;2023-06-14T14:11:07;29.70;20.10
16827;DHT22;8530;49.540;8.576;2023-06-14T14:13:34;29.70;20.00
16827;DHT22;8530;49.540;8.576;2023-06-14T14:16:02;29.90;20.10
16827;DHT22;8530;49.540;8.576;2023-06-14T14:18:29;29.90;19.90
16827;DHT22;8530;49.540;8.576;2023-06-14T14:20:56;30.00;19.90
16827;DHT22;8530;49.540;8.576;2023-06-14T14:23:23;29.90;19.80
16827;DHT22;8530;49.540;8.576;2023-06-14T14:25:52;30.00;19.90
16827;DHT22;8530;49.540;8.576;2023-06-14T14:28:18;30.10;19.90
16827;DHT22;8530;49.540;8.576;2023-06-14T14:30:46;30.20;20.00
16827;DHT22;8530;49.540;8.576;2023-06-14T14:33:13;30.20;19.90
16827;DHT22;8530;49.540;8.576;2023-06-14T14:35:41;29.90;19.80
16827;DHT22;8530;49.540;8.576;2023-06-14T14:38:08;29.60;20.00
16827;DHT22;8530;49.540;8.576;2023-06-14T14:40:35;29.20;20.10
16827;DHT22;8530;49.540;8.576;2023-06-14T14:43:03;28.90;20.30
16827;DHT22;8530;49.540;8.576;2023-06-14T14:45:30;28.60;20.40
16827;DHT22;8530;49.540;8.576;2023-06-14T14:47:57;28.50;21.00
16827;DHT22;8530;49.540;8.576;2023-06-14T14:50:25;28.40;20.60
16827;DHT22;8530;49.540;8.576;2023-06-14T14:52:52;28.40;20.70
16827;DHT22;8530;49.540;8.576;2023-06-14T14:55:19;28.50;20.80
16827;DHT22;8530;49.540;8.576;2023-06-14T14:57:45;28.40;20.60
16827;DHT22;8530;49.540;8.576;2023-06-14T15:00:14;28.30;20.70
16827;DHT22;8530;49.540;8.576;2023-06-14T15:02:41;28.30;20.80
16827;DHT22;8530;49.540;8.576;2023-06-14T15:05:08;28.20;20.80
16827;DHT22;8530;49.540;8.576;2023-06-14T15:07:34;28.30;21.00
16827;DHT22;8530;49.540;8.576;2023-06-14T15:10:01;28.40;20.90
16827;DHT22;8530;49.540;8.576;2023-06-14T15:12:28;28.70;20.90
16827;DHT22;8530;49.540;8.576;2023-06-14T15:14:55;28.90;20.80
16827;DHT22;8530;49.540;8.576;2023-06-14T15:17:23;29.10;20.80
16827;DHT22;8530;49.540;8.576;2023-06-14T15:19:50;29.20;20.80
16827;DHT22;8530;49.540;8.576;2023-06-14T15:22:17;29.30;20.60
16827;DHT22;8530;49.540;8.576;2023-06-14T15:24:44;29.30;20.60
16827;DHT22;8530;49.540;8.576;2023-06-14T15:27:12;29.40;20.60
16827;DHT22;8530;49.540;8.576;2023-06-14T15:29:38;29.30;20.50
16827;DHT22;8530;49.540;8.576;2023-06-14T15:32:06;29.20;20.40
16827;DHT22;8530;49.540;8.576;2023-06-14T15:34:35;29.10;20.40
16827;DHT22;8530;49.540;8.576;2023-06-14T15:37:03;29.10;20.50
16827;DHT22;8530;49.540;8.576;2023-06-14T15:39:30;29.00;20.40
16827;DHT22;8530;49.540;8.576;2023-06-14T15:41:57;28.80;20.30
16827;DHT22;8530;49.540;8.576;2023-06-14T15:44:25;28.40;20.40
16827;DHT22;8530;49.540;8.576;2023-06-14T15:46:52;28.30;20.50
16827;DHT22;8530;49.540;8.576;2023-06-14T15:49:18;28.30;20.60